Time;durP1;ratioP1;P1;durP2;ratioP2;P2;SDS_P1;SDS_P2;PMS_P1;PMS_P2;Temp;Humidity;BMP_temperature;BMP_pressure;BME280_temperature;BME280_humidity;BME280_pressure;Samples;Min_cycle;Max_cycle;Signal;HPM_P1;HPM_P2
2022/10/26 00:01:15;;;;;;;10.35;5.40;;;;;;;10.29;91.45;101333.16;5125109;27;20046;-75
2022/10/26 00:03:44;;;;;;;11.95;5.28;;;;;;;10.30;91.51;101337.53;5112515;27;20040;-75
2022/10/26 00:06:15;;;;;;;13.88;5.22;;;;;;;10.30;91.59;101327.84;5112733;27;20036;-74
2022/10/26 00:08:44;;;;;;;10.20;4.72;;;;;;;10.30;91.41;101324.34;5120247;27;20107;-74
2022/10/26 00:11:13;;;;;;;12.65;5.10;;;;;;;10.28;91.35;101324.38;5127768;27;20200;-75
2022/10/26 00:13:45;;;;;;;11.75;5.30;;;;;;;10.30;91.66;101319.09;5123586;27;20096;-74
2022/10/26 00:16:26;;;;;;;9.50;4.90;;;;;;;10.32;91.51;101315.50;5114261;27;20121;-74
2022/10/26 00:18:54;;;;;;;9.00;5.05;;;;;;;10.31;91.66;101311.13;5115770;27;20164;-74
2022/10/26 00:21:21;;;;;;;11.15;5.30;;;;;;;10.34;91.72;101312.81;5112436;27;20036;-73
2022/10/26 00:23:48;;;;;;;11.73;5.22;;;;;;;10.35;91.64;101314.56;5119592;27;20055;-74
2022/10/26 00:26:15;;;;;;;11.48;5.60;;;;;;;10.38;91.71;101317.16;5118431;27;20039;-74
2022/10/26 00:28:42;;;;;;;11.05;5.13;;;;;;;10.39;91.48;101322.41;5113715;27;20119;-74
2022/10/26 00:31:13;;;;;;;12.27;5.30;;;;;;;10.41;91.39;101314.47;5126763;27;20039;-73
2022/10/26 00:33:41;;;;;;;12.88;5.45;;;;;;;10.41;91.60;101320.59;5111580;27;20056;-73
2022/10/26 00:36:15;;;;;;;10.82;5.70;;;;;;;10.43;91.56;101314.44;5121798;27;20036;-73
2022/10/26 00:38:44;;;;;;;;;;;;;;;10.39;91.58;101316.28;5123034;27;20109;-74
2022/10/26 00:41:15;;;;;;;9.80;5.50;;;;;;;10.39;91.75;101319.75;5123102;27;19981;-72
2022/10/26 00:43:42;;;;;;;9.43;5.32;;;;;;;10.41;91.77;101325.03;5126702;27;20123;-72
2022/10/26 00:46:18;;;;;;;11.35;5.30;;;;;;;10.43;91.87;101320.56;5127457;27;20051;-72
2022/10/26 00:48:52;;;;;;;9.68;5.30;;;;;;;10.44;91.65;101317.03;5122661;27;20040;-72
2022/10/26 00:51:39;;;;;;;8.07;5.20;;;;;;;10.47;91.62;101313.47;5127697;27;20039;-72
2022/10/26 00:54:17;;;;;;;10.00;5.32;;;;;;;10.45;91.74;101308.22;5122886;27;20086;-72
2022/10/26 00:56:50;;;;;;;9.10;5.10;;;;;;;10.46;91.50;101296.78;5129332;27;20040;-72
2022/10/26 00:59:20;;;;;;;19.25;6.18;;;;;;;10.45;91.87;101313.50;5114938;27;20043;-72
2022/10/26 01:01:49;;;;;;;13.27;5.38;;;;;;;10.46;91.91;101309.97;5126133;27;20044;-72
2022/10/26 01:04:17;;;;;;;10.85;5.13;;;;;;;10.45;91.76;101305.59;5124958;27;20053;-72
2022/10/26 01:06:46;;;;;;;11.73;4.82;;;;;;;10.48;92.10;101294.97;5124193;27;20051;-72
2022/10/26 01:09:17;;;;;;;8.77;4.78;;;;;;;10.48;92.00;101297.63;5113757;27;20055;-72
2022/10/26 01:11:44;;;;;;;12.02;4.88;;;;;;;10.53;92.16;101297.50;5128709;27;20036;-72
2022/10/26 01:14:16;;;;;;;9.52;5.35;;;;;;;10.51;92.36;101279.09;5118765;27;20562;-72
2022/10/26 01:17:13;;;;;;;9.68;4.88;;;;;;;10.54;92.52;101275.53;5120405;27;20040;-72
2022/10/26 01:20:17;;;;;;;9.73;5.25;;;;;;;10.58;92.44;101258.75;5126213;27;20501;-73
2022/10/26 01:23:00;;;;;;;11.43;5.27;;;;;;;10.58;92.77;101258.75;5123506;27;20038;-73
2022/10/26 01:25:48;;;;;;;11.00;4.93;;;;;;;10.60;92.60;101263.97;5114155;27;20032;-73
2022/10/26 01:28:34;;;;;;;7.88;4.80;;;;;;;10.62;92.38;101273.56;5113963;27;20063;-73
2022/10/26 01:31:07;;;;;;;10.43;4.68;;;;;;;10.63;92.62;101279.72;5114936;27;20105;-73
2022/10/26 01:33:48;;;;;;;11.23;5.07;;;;;;;10.66;92.67;101284.91;5112900;27;20451;-72
2022/10/26 01:36:46;;;;;;;7.18;4.60;;;;;;;10.70;92.51;101279.53;5122143;27;20063;-73
2022/10/26 01:39:26;;;;;;;9.68;5.15;;;;;;;10.72;92.55;101280.34;5118192;27;20570;-73
2022/10/26 01:42:00;;;;;;;10.23;4.88;;;;;;;10.77;92.69;101280.25;5133093;27;20551;-72
2022/10/26 01:44:44;;;;;;;8.30;4.60;;;;;;;10.79;92.74;101274.91;5116846;27;20060;-72
2022/10/26 01:47:15;;;;;;;13.17;4.80;;;;;;;10.79;92.46;101270.53;5113510;27;20121;-73
2022/10/26 01:49:51;;;;;;;9.07;4.80;;;;;;;10.79;92.50;101265.25;5115349;27;20044;-72
2022/10/26 01:52:19;;;;;;;14.35;5.20;;;;;;;10.79;92.54;101254.72;5133731;27;20050;-73
2022/10/26 01:54:47;;;;;;;8.95;4.82;;;;;;;10.78;92.56;101258.25;5119010;27;20044;-72
2022/10/26 01:57:20;;;;;;;8.57;4.78;;;;;;;10.79;92.36;101256.47;5115760;27;20048;-73
2022/10/26 02:00:08;;;;;;;9.73;4.97;;;;;;;10.80;92.10;101255.56;5119205;27;20031;-73
2022/10/26 02:02:53;;;;;;;10.65;5.32;;;;;;;10.79;92.50;101251.19;5117581;27;20044;-72
2022/10/26 02:05:56;;;;;;;12.13;4.68;;;;;;;10.79;92.36;101241.53;5122967;27;20061;-72
2022/10/26 02:08:27;;;;;;;9.75;5.00;;;;;;;10.78;92.57;101241.56;5115757;27;20055;-73
2022/10/26 02:11:25;;;;;;;8.70;4.47;;;;;;;10.76;92.51;101231.03;5125203;27;20043;-73
2022/10/26 02:14:21;;;;;;;9.40;4.90;;;;;;;10.77;92.61;101229.28;5122526;27;20048;-73
2022/10/26 02:17:01;;;;;;;10.57;4.90;;;;;;;10.75;92.76;101231.94;5123159;27;20044;-72
2022/10/26 02:19:42;;;;;;;12.52;5.30;;;;;;;10.74;92.64;101235.47;5113496;27;20060;-72
2022/10/26 02:22:17;;;;;;;8.88;4.82;;;;;;;10.72;92.96;101234.69;5117535;27;20044;-72
2022/10/26 02:24:49;;;;;;;10.95;5.28;;;;;;;10.74;93.10;101232.00;5114351;27;20036;-72
2022/10/26 02:27:33;;;;;;;11.38;4.82;;;;;;;10.75;93.17;101233.72;5116884;27;20040;-72
2022/10/26 02:30:02;;;;;;;10.87;4.70;;;;;;;10.78;93.14;101225.75;5110828;27;20047;-72
2022/10/26 02:32:36;;;;;;;8.68;4.35;;;;;;;10.80;93.15;101230.06;5120939;27;20048;-73
2022/10/26 02:35:05;;;;;;;13.65;4.75;;;;;;;10.81;93.06;101218.63;5124998;27;20485;-72
2022/10/26 02:37:35;;;;;;;11.13;5.32;;;;;;;10.83;93.43;101218.56;5111744;27;20449;-73
2022/10/26 02:40:11;;;;;;;9.73;4.93;;;;;;;10.81;93.18;101213.34;5111583;27;20465;-72
2022/10/26 02:42:44;;;;;;;11.07;4.90;;;;;;;10.85;93.20;101219.41;5130807;27;20054;-72
2022/10/26 02:45:19;;;;;;;12.43;4.93;;;;;;;10.86;92.93;101211.44;5121605;27;20830;-73
2022/10/26 02:47:46;;;;;;;10.15;4.82;;;;;;;10.87;93.16;101205.25;5119765;27;20047;-72
2022/10/26 02:50:15;;;;;;;10.98;5.18;;;;;;;10.90;93.18;101212.22;5126608;27;20172;-73
2022/10/26 02:53:44;;;;;;;11.57;5.15;;;;;;;10.92;93.00;101204.28;5120450;27;20420;-73
2022/10/26 02:56:27;;;;;;;8.07;4.47;;;;;;;10.92;93.11;101209.56;5087966;28;20574;-73
2022/10/26 02:59:03;;;;;;;10.75;5.15;;;;;;;10.93;92.90;101212.16;5082544;28;20638;-73
2022/10/26 03:01:34;;;;;;;11.80;4.80;;;;;;;10.95;92.73;101213.00;5116130;27;20060;-74
2022/10/26 03:04:01;;;;;;;9.68;4.95;;;;;;;10.97;92.89;101205.03;5116571;27;20044;-74
2022/10/26 03:06:28;;;;;;;9.85;4.63;;;;;;;10.96;92.94;101196.25;5113555;27;20037;-74
2022/10/26 03:08:55;;;;;;;10.60;4.82;;;;;;;10.95;92.78;101209.47;5111669;27;20051;-74
2022/10/26 03:11:24;;;;;;;9.02;4.68;;;;;;;10.94;92.65;101205.97;5119731;27;20038;-74
2022/10/26 03:13:51;;;;;;;7.47;4.78;;;;;;;10.91;92.90;101202.56;5122701;27;20048;-74
2022/10/26 03:16:19;;;;;;;9.00;4.70;;;;;;;10.88;92.81;101196.44;5120894;27;20040;-75
2022/10/26 03:18:46;;;;;;;11.15;4.80;;;;;;;10.87;92.72;101201.78;5120728;27;20052;-75
2022/10/26 03:21:13;;;;;;;9.27;4.70;;;;;;;10.87;93.03;101200.00;5111756;27;20040;-75
2022/10/26 03:23:40;;;;;;;12.85;4.95;;;;;;;10.86;92.80;101200.03;5123386;27;20047;-74
2022/10/26 03:26:08;;;;;;;9.00;4.85;;;;;;;10.86;92.84;101203.53;5126539;27;20038;-75
2022/10/26 03:28:35;;;;;;;14.85;5.45;;;;;;;10.89;93.12;101202.56;5117130;27;20047;-75
2022/10/26 03:31:04;;;;;;;16.05;4.90;;;;;;;10.91;93.04;101197.28;5129176;27;20118;-75
2022/10/26 03:33:32;;;;;;;10.20;4.50;;;;;;;10.89;93.17;101199.94;5124540;27;20044;-73
2022/10/26 03:35:59;;;;;;;13.38;4.70;;;;;;;10.90;92.95;101200.81;5125485;27;20044;-73
2022/10/26 03:38:26;;;;;;;12.88;4.53;;;;;;;10.88;92.99;101199.09;5124075;27;20523;-74
2022/10/26 03:40:53;;;;;;;7.30;4.03;;;;;;;10.87;93.09;101202.63;5120697;27;20040;-74
2022/10/26 03:43:20;;;;;;;9.43;4.57;;;;;;;10.87;93.04;101196.50;5128397;27;20047;-74
2022/10/26 03:45:48;;;;;;;8.73;4.35;;;;;;;10.87;93.06;101200.00;5127882;27;20530;-74
2022/10/26 03:48:15;;;;;;;11.98;4.70;;;;;;;10.88;93.19;101192.97;5115996;27;20473;-73
2022/10/26 03:50:42;;;;;;;9.80;4.70;;;;;;;10.88;93.33;101193.81;5123217;27;20141;-74
2022/10/26 03:53:09;;;;;;;7.25;4.47;;;;;;;10.91;93.63;101187.59;5113066;27;20044;-74
2022/10/26 03:55:37;;;;;;;11.48;4.90;;;;;;;10.95;93.61;101186.59;5114967;27;20533;-73
2022/10/26 03:58:04;;;;;;;9.50;4.68;;;;;;;10.98;93.62;101181.25;5119170;27;20066;-73
2022/10/26 04:00:31;;;;;;;10.68;4.97;;;;;;;11.00;93.70;101192.63;5113549;27;20047;-73
2022/10/26 04:02:59;;;;;;;8.32;4.65;;;;;;;11.03;93.55;101183.78;5111346;27;20054;-73
2022/10/26 04:05:28;;;;;;;9.27;4.65;;;;;;;11.05;93.66;101183.72;5117308;27;20036;-74
2022/10/26 04:08:03;;;;;;;10.65;4.43;;;;;;;11.06;93.51;101181.03;5122489;27;20044;-73
2022/10/26 04:10:31;;;;;;;9.70;4.53;;;;;;;11.10;93.64;101174.78;5132916;27;20036;-74
2022/10/26 04:13:00;;;;;;;9.23;4.03;;;;;;;11.11;93.55;101170.34;5132172;27;20468;-73
2022/10/26 04:15:27;;;;;;;7.60;4.60;;;;;;;11.13;93.58;101179.09;5114290;27;20055;-73
2022/10/26 04:18:00;;;;;;;7.97;4.15;;;;;;;11.15;93.45;101178.16;5119766;27;20564;-73
2022/10/26 04:20:30;;;;;;;10.98;4.50;;;;;;;11.17;93.36;101172.84;5125300;27;20046;-73
2022/10/26 04:23:05;;;;;;;5.95;4.13;;;;;;;11.18;93.53;101180.72;5134258;27;20040;-73
2022/10/26 04:25:32;;;;;;;6.75;4.40;;;;;;;11.22;93.48;101184.13;5119769;27;20054;-73
2022/10/26 04:28:02;;;;;;;10.02;4.32;;;;;;;11.25;93.24;101188.44;5116053;27;20098;-74
2022/10/26 04:30:31;;;;;;;9.23;4.00;;;;;;;11.25;93.35;101184.06;5116560;27;20417;-71
2022/10/26 04:32:59;;;;;;;8.00;4.35;;;;;;;11.28;93.13;101193.66;5123033;27;20454;-74
2022/10/26 04:35:27;;;;;;;9.05;4.10;;;;;;;11.29;93.18;101190.09;5121799;27;20484;-74
2022/10/26 04:38:03;;;;;;;7.38;4.05;;;;;;;11.26;93.02;101188.41;5122079;27;20037;-74
2022/10/26 04:40:31;;;;;;;9.70;4.40;;;;;;;11.29;92.96;101190.09;5123609;27;20039;-74
2022/10/26 04:43:00;;;;;;;5.68;4.10;;;;;;;11.28;92.94;101188.38;5123020;27;20044;-72
2022/10/26 04:45:30;;;;;;;9.95;4.45;;;;;;;11.27;93.19;101184.88;5123418;27;20841;-73
2022/10/26 04:48:07;;;;;;;9.55;4.35;;;;;;;11.30;93.23;101182.13;5117303;27;20055;-73
2022/10/26 04:50:38;;;;;;;11.18;3.90;;;;;;;11.33;93.18;101181.19;5120330;27;20524;-73
2022/10/26 04:53:08;;;;;;;12.25;4.15;;;;;;;11.35;93.41;101179.34;5117821;27;20517;-72
2022/10/26 04:55:36;;;;;;;7.63;3.67;;;;;;;11.38;93.13;101167.88;5096947;27;20048;-71
2022/10/26 04:58:04;;;;;;;11.82;4.15;;;;;;;11.41;93.10;101167.75;5114602;27;20089;-76
2022/10/26 05:00:33;;;;;;;7.85;4.03;;;;;;;11.45;93.36;101165.00;5122860;27;20040;-76
2022/10/26 05:03:03;;;;;;;10.70;3.83;;;;;;;11.55;93.26;101167.41;5123487;27;20506;-74
2022/10/26 05:05:35;;;;;;;7.47;3.38;;;;;;;11.61;93.50;101164.56;5123120;27;20453;-75
2022/10/26 05:08:03;;;;;;;9.10;3.83;;;;;;;11.70;93.47;101160.78;5122901;27;20516;-76
2022/10/26 05:10:30;;;;;;;6.57;3.60;;;;;;;11.77;93.35;101163.19;5120471;27;20048;-73
2022/10/26 05:12:59;;;;;;;7.53;2.90;;;;;;;11.84;93.02;101165.66;5124728;27;20044;-76
2022/10/26 05:15:30;;;;;;;7.70;3.15;;;;;;;11.89;92.71;101164.59;5120549;27;20622;-76
2022/10/26 05:18:01;;;;;;;9.68;3.42;;;;;;;11.95;92.78;101164.41;5120666;27;20064;-75
2022/10/26 05:20:31;;;;;;;10.27;3.67;;;;;;;11.96;92.47;101166.13;5119758;27;20069;-75
2022/10/26 05:23:11;;;;;;;8.20;3.42;;;;;;;11.99;92.42;101167.84;5117930;27;20055;-74
2022/10/26 05:25:38;;;;;;;6.82;3.20;;;;;;;11.98;92.16;101170.53;5118757;27;20040;-74
2022/10/26 05:28:13;;;;;;;6.60;3.22;;;;;;;11.98;92.12;101174.03;5119799;27;20130;-75
2022/10/26 05:30:44;;;;;;;9.40;3.55;;;;;;;12.02;91.86;101172.16;5118829;27;20043;-75
2022/10/26 05:33:13;;;;;;;6.50;3.40;;;;;;;12.06;92.05;101168.53;5119372;27;20039;-74
2022/10/26 05:35:40;;;;;;;9.32;3.22;;;;;;;12.11;91.93;101166.59;5119360;27;20635;-75
2022/10/26 05:38:08;;;;;;;8.48;2.78;;;;;;;12.13;91.83;101174.47;5119761;27;20063;-74
2022/10/26 05:40:36;;;;;;;7.30;3.20;;;;;;;12.13;91.69;101171.84;5120037;27;20488;-75
2022/10/26 05:43:03;;;;;;;8.77;3.30;;;;;;;12.13;91.78;101174.47;5121033;27;20397;-74
2022/10/26 05:45:34;;;;;;;5.93;2.88;;;;;;;12.16;91.64;101172.59;5123958;27;20036;-74
2022/10/26 05:48:01;;;;;;;5.82;2.70;;;;;;;12.23;91.80;101170.63;5122124;27;20059;-74
2022/10/26 05:50:29;;;;;;;6.20;3.13;;;;;;;12.27;91.63;101173.13;5120546;27;20060;-73
2022/10/26 05:52:56;;;;;;;6.75;3.17;;;;;;;12.29;91.51;101181.00;5125664;27;20042;-74
2022/10/26 05:55:24;;;;;;;6.95;2.72;;;;;;;12.29;91.27;101177.50;5121731;27;20044;-74
2022/10/26 05:57:52;;;;;;;6.00;2.60;;;;;;;12.32;91.29;101172.09;5123766;27;20032;-74
2022/10/26 06:00:27;;;;;;;8.70;2.78;;;;;;;12.31;91.22;101171.25;5099953;28;20040;-75
2022/10/26 06:03:11;;;;;;;6.90;2.67;;;;;;;12.36;91.33;101181.69;5126962;27;20062;-75
2022/10/26 06:05:52;;;;;;;4.78;2.50;;;;;;;12.35;91.17;101178.19;5125407;27;20556;-75
2022/10/26 06:08:23;;;;;;;4.32;2.55;;;;;;;12.35;91.27;101180.81;5112444;28;20047;-75
2022/10/26 06:10:52;;;;;;;5.28;2.70;;;;;;;12.38;91.38;101183.34;5121122;27;20429;-74
2022/10/26 06:13:20;;;;;;;7.35;2.33;;;;;;;12.42;91.15;101185.00;5121068;27;20048;-73
2022/10/26 06:16:09;;;;;;;6.15;2.58;;;;;;;12.42;90.85;101187.63;5118658;27;20761;-72
2022/10/26 06:19:14;;;;;;;8.98;2.80;;;;;;;12.40;90.75;101189.47;5113055;27;20499;-71
2022/10/26 06:22:05;;;;;;;6.65;2.80;;;;;;;12.37;90.80;101196.63;5113766;27;20052;-71
2022/10/26 06:24:51;;;;;;;7.00;2.80;;;;;;;12.37;90.61;101201.91;5119240;27;20046;-71
2022/10/26 06:27:44;;;;;;;8.00;2.90;;;;;;;12.38;90.60;101203.66;5130550;27;20035;-71
2022/10/26 06:30:11;;;;;;;7.70;2.90;;;;;;;12.37;90.73;101209.84;5133015;27;20048;-71
2022/10/26 06:32:44;;;;;;;9.10;2.60;;;;;;;12.37;90.64;101213.34;5133798;27;20624;-70
2022/10/26 06:35:25;;;;;;;6.20;2.63;;;;;;;12.36;90.74;101208.13;5122319;27;20566;-70
2022/10/26 06:37:58;;;;;;;8.18;2.90;;;;;;;12.36;90.65;101216.91;5132953;27;20519;-71
2022/10/26 06:40:26;;;;;;;6.55;2.40;;;;;;;12.38;90.78;101211.59;5130775;27;20043;-72
2022/10/26 06:42:53;;;;;;;7.43;2.28;;;;;;;12.39;90.59;101218.59;5112330;27;20094;-71
2022/10/26 06:45:21;;;;;;;7.60;2.63;;;;;;;12.39;90.63;101205.38;5132288;27;20036;-71
2022/10/26 06:48:02;;;;;;;4.65;3.00;;;;;;;12.42;90.56;101214.06;5132675;27;20063;-71
2022/10/26 06:50:43;;;;;;;6.00;2.45;;;;;;;12.43;90.51;101209.63;5114901;27;20524;-71
2022/10/26 06:53:47;;;;;;;8.48;2.58;;;;;;;12.45;90.32;101207.81;5112158;28;20036;-71
2022/10/26 06:56:16;;;;;;;5.30;2.30;;;;;;;12.48;90.37;101213.00;5112552;28;20032;-72
2022/10/26 06:58:45;;;;;;;11.57;2.42;;;;;;;12.52;90.15;101216.41;5112270;28;20071;-71
2022/10/26 07:01:12;;;;;;;5.30;2.20;;;;;;;12.56;90.23;101218.06;5120531;27;20051;-71
2022/10/26 07:03:39;;;;;;;4.70;2.00;;;;;;;12.58;90.08;101209.16;5133123;27;20051;-72
2022/10/26 07:06:08;;;;;;;7.47;2.35;;;;;;;12.60;90.02;101222.31;5132699;27;20036;-71
2022/10/26 07:08:36;;;;;;;6.00;2.22;;;;;;;12.60;89.74;101214.38;5132901;27;20047;-72
2022/10/26 07:11:03;;;;;;;4.88;2.17;;;;;;;12.60;89.51;101210.88;5133072;27;20039;-71
2022/10/26 07:13:30;;;;;;;7.65;2.30;;;;;;;12.56;89.39;101210.13;5132478;27;20093;-71
2022/10/26 07:15:57;;;;;;;6.28;2.20;;;;;;;12.51;89.26;101212.94;5131419;27;20055;-70
2022/10/26 07:18:24;;;;;;;7.85;2.47;;;;;;;12.51;89.44;101212.94;5121523;27;20071;-71
2022/10/26 07:20:51;;;;;;;6.20;2.53;;;;;;;12.47;89.51;101215.69;5112154;27;20036;-71
2022/10/26 07:23:21;;;;;;;5.93;2.20;;;;;;;12.45;89.60;101210.47;5112210;28;20043;-71
2022/10/26 07:25:49;;;;;;;5.80;2.53;;;;;;;12.51;89.49;101207.63;5111906;28;20090;-71
2022/10/26 07:28:16;;;;;;;6.80;2.22;;;;;;;12.59;89.54;101204.72;5115983;27;20123;-71
2022/10/26 07:30:43;;;;;;;8.68;2.28;;;;;;;12.66;89.51;101203.63;5131160;27;20038;-71
2022/10/26 07:33:13;;;;;;;8.63;2.20;;;;;;;12.76;89.57;101204.16;5132549;27;20051;-70
2022/10/26 07:35:40;;;;;;;5.78;2.20;;;;;;;12.85;89.42;101200.34;5130885;27;20093;-71
2022/10/26 07:38:08;;;;;;;6.68;2.05;;;;;;;12.94;89.29;101207.09;5125975;27;20071;-71
2022/10/26 07:40:36;;;;;;;4.93;2.20;;;;;;;13.00;89.27;101210.38;5111655;27;20110;-71
2022/10/26 07:43:04;;;;;;;6.55;2.80;;;;;;;13.11;88.82;101202.09;5115026;27;20047;-70
2022/10/26 07:45:31;;;;;;;8.40;2.30;;;;;;;13.24;88.44;101210.47;5126970;27;20076;-71
2022/10/26 07:47:59;;;;;;;6.15;2.10;;;;;;;13.31;88.28;101219.91;5121099;27;20044;-70
2022/10/26 07:50:27;;;;;;;12.43;2.28;;;;;;;13.40;88.18;101225.81;5111549;28;20056;-71
2022/10/26 07:52:54;;;;;;;8.38;2.00;;;;;;;13.49;87.95;101231.66;5122537;27;20041;-70
2022/10/26 07:55:21;;;;;;;7.85;1.80;;;;;;;13.59;87.66;101245.41;5113361;27;20048;-70
2022/10/26 07:57:48;;;;;;;7.03;1.75;;;;;;;13.69;87.51;101237.13;5129666;27;20501;-71
2022/10/26 08:00:20;;;;;;;8.90;2.00;;;;;;;13.78;87.38;101239.47;5132646;27;20173;-71
2022/10/26 08:02:48;;;;;;;10.07;2.20;;;;;;;13.88;87.12;101247.91;5149290;27;20043;-70
2022/10/26 08:05:15;;;;;;;6.60;1.80;;;;;;;13.97;86.82;101245.78;5133924;27;20047;-70
2022/10/26 08:07:44;;;;;;;13.57;2.15;;;;;;;14.08;86.66;101255.97;5127420;27;20093;-72
2022/10/26 08:10:13;;;;;;;14.45;2.22;;;;;;;14.18;85.95;101258.25;5130561;27;20477;-72
2022/10/26 08:12:42;;;;;;;10.65;2.05;;;;;;;14.29;85.71;101259.56;5126807;27;20048;-71
2022/10/26 08:15:10;;;;;;;9.68;2.13;;;;;;;14.39;85.53;101253.94;5120730;27;20040;-71
2022/10/26 08:17:37;;;;;;;6.30;1.95;;;;;;;14.48;84.48;101250.03;5124661;27;20046;-71
2022/10/26 08:20:05;;;;;;;6.88;1.90;;;;;;;14.57;84.66;101247.88;5130137;27;20118;-71
2022/10/26 08:22:32;;;;;;;9.13;1.90;;;;;;;14.67;84.47;101260.78;5128465;27;20051;-70
2022/10/26 08:24:59;;;;;;;12.63;2.05;;;;;;;14.74;84.03;101256.94;5117620;27;20044;-71
2022/10/26 08:27:26;;;;;;;8.05;2.33;;;;;;;14.84;84.13;101268.06;5123861;27;20036;-70
2022/10/26 08:29:53;;;;;;;11.20;2.13;;;;;;;14.96;84.09;101275.50;5126094;27;20036;-70
2022/10/26 08:32:20;;;;;;;6.32;1.88;;;;;;;15.00;84.09;101277.09;5118463;27;20048;-70
2022/10/26 08:34:47;;;;;;;6.05;1.92;;;;;;;15.00;84.06;101274.44;5122688;27;20044;-70
2022/10/26 08:37:14;;;;;;;4.63;2.00;;;;;;;15.01;83.98;101276.19;5137204;27;20046;-70
2022/10/26 08:39:41;;;;;;;7.65;2.30;;;;;;;14.99;83.66;101279.84;5127399;27;20046;-71
2022/10/26 08:42:23;;;;;;;6.45;2.35;;;;;;;14.94;83.46;101281.81;5123814;27;20037;-71
2022/10/26 08:45:01;;;;;;;10.40;2.50;;;;;;;14.99;83.25;101282.50;5125990;27;20056;-70
2022/10/26 08:47:42;;;;;;;8.30;2.28;;;;;;;15.09;83.34;101285.59;5134129;27;20039;-71
2022/10/26 08:50:24;;;;;;;8.43;2.20;;;;;;;15.21;83.26;101293.06;5127520;27;20044;-71
2022/10/26 08:53:13;;;;;;;10.40;2.60;;;;;;;15.36;83.29;101287.06;5132002;27;20048;-70
2022/10/26 08:55:55;;;;;;;8.13;2.40;;;;;;;15.50;83.23;101281.19;5149855;27;20054;-71
2022/10/26 08:58:35;;;;;;;10.88;2.50;;;;;;;15.66;82.67;101273.41;5124732;27;20052;-68
2022/10/26 09:01:04;;;;;;;8.32;2.75;;;;;;;15.77;82.37;101278.22;5129383;27;20040;-70
2022/10/26 09:03:31;;;;;;;9.80;2.70;;;;;;;15.93;82.09;101282.84;5125820;27;20566;-71
2022/10/26 09:06:11;;;;;;;5.20;2.70;;;;;;;16.13;81.87;101279.28;5126191;27;20095;-70
2022/10/26 09:09:06;;;;;;;6.30;2.45;;;;;;;16.28;80.59;101283.88;5133935;27;20047;-70
2022/10/26 09:12:00;;;;;;;11.65;2.60;;;;;;;16.33;80.25;101288.13;5137070;27;20027;-70
2022/10/26 09:14:51;;;;;;;10.50;2.50;;;;;;;16.39;80.09;101294.03;5134461;27;20039;-71
2022/10/26 09:17:32;;;;;;;7.13;2.55;;;;;;;16.45;79.67;101290.19;5133357;27;20042;-71
2022/10/26 09:20:31;;;;;;;10.52;2.80;;;;;;;16.52;79.17;101296.09;5144609;27;20541;-73
2022/10/26 09:23:17;;;;;;;7.03;2.70;;;;;;;16.58;79.27;101298.44;5137448;27;20035;-72
2022/10/26 09:25:57;;;;;;;5.35;2.50;;;;;;;16.68;79.31;101304.22;5133843;27;20104;-72
2022/10/26 09:28:29;;;;;;;11.50;2.80;;;;;;;16.78;78.75;101300.16;5132921;27;20051;-71
2022/10/26 09:31:00;;;;;;;7.85;2.70;;;;;;;16.87;78.71;101298.81;5134831;27;20629;-72
2022/10/26 09:33:33;;;;;;;14.88;3.35;;;;;;;16.96;77.89;101302.88;5125377;27;20048;-72
2022/10/26 09:36:12;;;;;;;15.88;3.20;;;;;;;17.05;78.17;101299.75;5113191;27;20083;-71
2022/10/26 09:39:22;;;;;;;9.77;3.42;;;;;;;17.15;77.94;101292.13;5133364;27;20050;-71
2022/10/26 09:42:13;;;;;;;6.15;2.70;;;;;;;17.29;77.47;101288.78;5136626;27;20047;-71
2022/10/26 09:44:53;;;;;;;17.67;3.15;;;;;;;17.26;77.84;101288.94;5154846;27;20069;-70
2022/10/26 09:47:45;;;;;;;6.80;2.40;;;;;;;17.41;77.62;101297.94;5134510;27;20117;-72
2022/10/26 09:50:39;;;;;;;8.60;2.78;;;;;;;17.53;77.75;101302.63;5116711;27;20044;-72
2022/10/26 09:53:06;;;;;;;6.50;2.60;;;;;;;17.66;77.24;101311.69;5133043;27;20927;-72
2022/10/26 09:55:50;;;;;;;5.05;2.42;;;;;;;17.79;77.00;101321.72;5134094;27;20040;-71
2022/10/26 09:58:28;;;;;;;5.35;2.65;;;;;;;17.88;76.18;101328.38;5126594;27;20048;-71
2022/10/26 10:00:56;;;;;;;6.18;2.30;;;;;;;17.99;75.58;101332.22;5112776;27;20040;-72
2022/10/26 10:03:34;;;;;;;17.38;3.67;;;;;;;18.11;75.39;101344.00;5127725;27;20070;-72
2022/10/26 10:06:26;;;;;;;7.05;2.40;;;;;;;18.28;74.72;101340.44;5132944;27;20048;-72
2022/10/26 10:09:20;;;;;;;13.35;2.70;;;;;;;18.40;74.38;101354.94;5132003;27;21068;-72
2022/10/26 10:11:53;;;;;;;12.57;3.07;;;;;;;18.52;74.07;101358.72;5134937;27;20563;-71
2022/10/26 10:14:36;;;;;;;8.27;2.22;;;;;;;18.58;73.91;101363.69;5154709;27;20043;-70
2022/10/26 10:17:14;;;;;;;;;;;;;;;18.68;73.98;101376.53;5142869;27;20879;-72
2022/10/26 10:19:46;;;;;;;9.02;2.42;;;;;;;18.77;73.85;101376.88;5133672;27;19958;-72
2022/10/26 10:22:22;;;;;;;8.57;2.38;;;;;;;18.89;72.82;101380.66;5133913;27;20528;-72
2022/10/26 10:25:01;;;;;;;9.55;2.53;;;;;;;18.95;71.59;101381.31;5122386;27;20043;-72
2022/10/26 10:27:32;;;;;;;9.10;2.22;;;;;;;18.94;72.15;101375.09;5116896;27;20050;-72
2022/10/26 10:30:28;;;;;;;6.03;1.90;;;;;;;18.99;71.54;101374.81;5124346;27;20544;-74
2022/10/26 10:33:37;;;;;;;10.30;2.50;;;;;;;19.02;72.06;101383.56;5129535;27;20050;-71
2022/10/26 10:36:14;;;;;;;10.95;2.17;;;;;;;19.06;72.76;101377.06;5129731;27;20055;-72
2022/10/26 10:38:44;;;;;;;8.05;2.20;;;;;;;19.14;72.02;101383.75;5148332;27;20039;-73
2022/10/26 10:41:38;;;;;;;8.07;1.90;;;;;;;19.22;71.74;101389.56;5113740;27;20043;-72
2022/10/26 10:44:28;;;;;;;4.28;1.75;;;;;;;19.27;71.33;101391.94;5113989;27;20383;-72
2022/10/26 10:47:05;;;;;;;10.90;2.00;;;;;;;19.32;71.32;101401.44;5118034;27;20066;-72
2022/10/26 10:49:32;;;;;;;9.35;2.25;;;;;;;19.35;71.29;101403.91;5146928;27;20118;-73
2022/10/26 10:51:59;;;;;;;10.70;2.35;;;;;;;19.35;71.26;101397.72;5114709;27;20032;-72
2022/10/26 10:54:38;;;;;;;5.47;1.70;;;;;;;19.43;70.94;101406.13;5119379;27;20059;-73
2022/10/26 10:57:36;;;;;;;8.02;1.88;;;;;;;19.43;70.62;101416.81;5130507;27;20123;-73
2022/10/26 11:00:11;;;;;;;15.30;2.28;;;;;;;19.54;69.50;101419.72;5133628;27;20048;-71
2022/10/26 11:02:59;;;;;;;10.13;2.05;;;;;;;19.63;69.67;101418.34;5138169;27;20032;-71
2022/10/26 11:06:00;;;;;;;8.70;1.70;;;;;;;19.67;69.87;101421.69;5145493;27;20044;-71
2022/10/26 11:08:38;;;;;;;5.65;1.65;;;;;;;19.69;69.53;101425.97;5141838;27;20092;-71
2022/10/26 11:11:17;;;;;;;9.07;2.40;;;;;;;19.73;69.46;101415.09;5144898;27;20043;-71
2022/10/26 11:13:52;;;;;;;6.57;1.83;;;;;;;19.77;69.15;101421.97;5131970;27;20036;-71
2022/10/26 11:16:41;;;;;;;8.73;2.22;;;;;;;19.85;69.09;101422.38;5132333;27;20040;-71
2022/10/26 11:20:09;;;;;;;6.65;1.60;;;;;;;19.88;68.75;101426.72;5134694;27;20116;-71
2022/10/26 11:23:11;;;;;;;9.82;1.80;;;;;;;19.92;68.74;101434.47;5135847;27;20055;-72
2022/10/26 11:26:13;;;;;;;19.05;2.60;;;;;;;19.94;68.43;101432.53;5128964;27;20056;-73
2022/10/26 11:29:16;;;;;;;10.88;2.40;;;;;;;20.04;68.42;101438.22;5133365;27;20827;-73
2022/10/26 11:32:12;;;;;;;8.63;1.88;;;;;;;20.10;68.67;101437.81;5127757;27;20040;-71
2022/10/26 11:35:04;;;;;;;6.95;2.08;;;;;;;20.07;68.37;101434.47;5094332;27;20523;-71
2022/10/26 11:38:05;;;;;;;7.38;1.98;;;;;;;20.18;67.96;101432.00;5126124;27;20043;-71
2022/10/26 11:40:53;;;;;;;8.50;1.92;;;;;;;20.28;67.97;101430.47;5123364;27;20123;-71
2022/10/26 11:43:45;;;;;;;8.68;2.08;;;;;;;20.37;67.55;101438.91;5135188;27;20526;-71
2022/10/26 11:46:22;;;;;;;5.05;1.67;;;;;;;20.37;67.48;101449.59;5134562;27;20051;-71
2022/10/26 11:49:18;;;;;;;3.83;1.60;;;;;;;20.43;67.96;101447.41;5118020;27;20440;-72
2022/10/26 11:52:16;;;;;;;5.05;1.70;;;;;;;20.44;67.71;101453.63;5101995;27;20060;-71
2022/10/26 11:54:52;;;;;;;7.45;1.70;;;;;;;20.48;68.13;101455.16;5128037;27;20097;-71
2022/10/26 11:57:23;;;;;;;10.15;1.70;;;;;;;20.56;68.05;101462.72;5117420;27;20036;-73
2022/10/26 12:00:17;;;;;;;6.07;1.83;;;;;;;20.69;66.93;101455.63;5129210;27;20054;-72